Time;durP1;ratioP1;P1;durP2;ratioP2;P2;SDS_P1;SDS_P2;PMS_P1;PMS_P2;Temp;Humidity;BMP_temperature;BMP_pressure;BME280_temperature;BME280_humidity;BME280_pressure;Samples;Min_cycle;Max_cycle;Signal;HPM_P1;HPM_P2
2022/11/11 00:00:58;;;;;;;6.80;2.53;;;9.10;99.90;;;;;;5014251;28;20210;-90
2022/11/11 00:03:25;;;;;;;3.43;2.57;;;9.00;99.90;;;;;;5016810;28;20235;-89
2022/11/11 00:05:52;;;;;;;6.53;2.13;;;9.20;99.90;;;;;;5015162;28;20212;-89
2022/11/11 00:08:19;;;;;;;8.20;2.63;;;9.00;99.90;;;;;;5016558;28;20660;-88
2022/11/11 00:10:47;;;;;;;8.83;2.43;;;9.00;99.90;;;;;;5016226;28;20214;-89
2022/11/11 00:13:14;;;;;;;5.93;2.17;;;9.10;99.90;;;;;;5015347;28;20712;-89
2022/11/11 00:15:40;;;;;;;4.77;2.30;;;9.10;99.90;;;;;;5016982;28;20212;-89
2022/11/11 00:26:28;;;;;;;5.73;2.00;;;9.30;99.90;;;;;;5012537;28;20219;-89
2022/11/11 00:28:54;;;;;;;3.87;1.80;;;9.10;99.90;;;;;;5016623;28;20213;-88
2022/11/11 00:31:21;;;;;;;3.77;1.97;;;9.20;99.90;;;;;;5016776;28;20211;-88
2022/11/11 00:33:48;;;;;;;6.53;1.97;;;9.20;99.90;;;;;;5018308;28;20239;-90
2022/11/11 00:36:14;;;;;;;8.17;2.13;;;9.20;99.90;;;;;;5019598;28;20200;-89
2022/11/11 00:38:48;;;;;;;2.90;1.80;;;9.30;99.90;;;;;;5018814;28;20260;-89
2022/11/11 00:41:17;;;;;;;5.93;2.20;;;9.50;99.90;;;;;;5019931;28;20219;-89
2022/11/11 00:43:46;;;;;;;6.17;1.87;;;9.40;99.90;;;;;;5020102;28;20240;-89
2022/11/11 00:51:43;;;;;;;4.57;2.33;;;9.20;99.90;;;;;;5026455;28;20204;-90
2022/11/11 00:54:10;;;;;;;3.17;1.80;;;9.30;99.90;;;;;;5014741;28;20209;-88
2022/11/11 00:56:38;;;;;;;4.13;2.10;;;9.30;99.90;;;;;;5011346;28;20201;-89
2022/11/11 00:59:07;;;;;;;5.10;2.03;;;9.30;99.90;;;;;;5014481;28;20218;-89
2022/11/11 01:01:36;;;;;;;2.90;1.53;;;9.20;99.90;;;;;;5014004;28;20216;-89
2022/11/11 01:04:03;;;;;;;4.20;1.50;;;9.20;99.90;;;;;;5012991;28;20283;-89
2022/11/11 01:06:30;;;;;;;5.57;1.80;;;9.10;99.90;;;;;;5014699;28;20207;-89
2022/11/11 01:08:57;;;;;;;6.63;2.20;;;9.10;99.90;;;;;;5015202;28;20230;-89
2022/11/11 01:11:25;;;;;;;6.63;2.50;;;9.10;99.90;;;;;;5014360;28;20291;-89
2022/11/11 01:13:52;;;;;;;5.27;2.23;;;9.10;99.90;;;;;;5014810;28;20228;-88
2022/11/11 01:16:22;;;;;;;3.37;1.93;;;9.00;99.90;;;;;;5014607;28;20202;-89
2022/11/11 01:18:49;;;;;;;4.70;1.80;;;9.00;99.90;;;;;;5015325;28;20226;-89
2022/11/11 01:21:18;;;;;;;4.53;1.97;;;8.90;99.90;;;;;;5013873;28;20207;-89
2022/11/11 01:23:47;;;;;;;2.87;1.67;;;9.10;99.90;;;;;;5014459;28;20230;-89
2022/11/11 01:26:16;;;;;;;4.77;1.90;;;9.00;99.90;;;;;;5014782;28;20228;-89
2022/11/11 01:28:44;;;;;;;7.97;2.30;;;9.10;99.90;;;;;;5014448;28;20201;-89
2022/11/11 01:31:13;;;;;;;5.73;2.10;;;9.20;99.90;;;;;;5014726;28;20207;-89
2022/11/11 01:33:41;;;;;;;6.40;1.97;;;9.00;99.90;;;;;;5014402;28;20595;-90
2022/11/11 01:36:10;;;;;;;4.37;1.70;;;9.10;99.90;;;;;;5015368;28;20291;-89
2022/11/11 01:38:38;;;;;;;4.00;1.70;;;9.00;99.90;;;;;;5014176;28;20212;-88
2022/11/11 01:43:47;;;;;;;6.00;2.07;;;8.90;99.90;;;;;;5013384;28;20215;-89
2022/11/11 01:46:26;;;;;;;4.07;1.73;;;8.80;99.90;;;;;;5014026;28;20712;-89
2022/11/11 01:51:45;;;;;;;4.27;2.03;;;8.70;99.90;;;;;;5009473;28;20227;-88
2022/11/11 01:54:17;;;;;;;8.03;2.47;;;8.80;99.90;;;;;;5011904;28;20291;-89
2022/11/11 01:56:49;;;;;;;3.87;2.00;;;8.80;99.90;;;;;;5014302;28;20216;-88
2022/11/11 01:59:17;;;;;;;3.13;1.70;;;8.60;99.90;;;;;;5013823;28;20574;-89
2022/11/11 02:01:45;;;;;;;3.67;2.27;;;8.50;99.90;;;;;;5013628;28;20219;-88
2022/11/11 02:07:03;;;;;;;6.93;1.90;;;8.60;99.90;;;;;;5013264;28;20281;-89
2022/11/11 02:09:30;;;;;;;4.63;1.50;;;8.40;99.90;;;;;;5013923;28;20269;-89
2022/11/11 02:14:54;;;;;;;5.87;1.83;;;8.40;99.90;;;;;;4994736;28;20581;-89
2022/11/11 02:17:20;;;;;;;5.60;1.93;;;8.50;99.90;;;;;;5013587;28;20212;-88
2022/11/11 02:19:53;;;;;;;3.60;2.03;;;8.40;99.90;;;;;;5014522;28;20220;-88
2022/11/11 02:22:28;;;;;;;5.23;2.13;;;8.60;99.90;;;;;;5012744;28;20692;-89
2022/11/11 02:24:58;;;;;;;2.83;1.63;;;8.50;99.90;;;;;;5013634;28;20228;-88
2022/11/11 02:27:27;;;;;;;3.67;1.90;;;8.60;99.90;;;;;;5011495;28;20666;-89
2022/11/11 02:29:56;;;;;;;4.80;1.80;;;8.60;99.90;;;;;;5012193;28;20208;-89
2022/11/11 02:32:23;;;;;;;4.17;1.70;;;8.30;99.90;;;;;;5012084;28;20228;-90
2022/11/11 02:34:50;;;;;;;5.53;2.53;;;8.40;99.90;;;;;;5014007;28;20594;-90
2022/11/11 02:37:20;;;;;;;4.10;1.73;;;8.30;99.90;;;;;;5013983;28;20215;-89
2022/11/11 02:39:50;;;;;;;4.77;2.03;;;8.30;99.90;;;;;;5013373;28;20215;-89
2022/11/11 02:42:21;;;;;;;4.53;1.97;;;8.30;99.90;;;;;;5011890;28;20718;-90
2022/11/11 02:44:47;;;;;;;5.10;1.97;;;8.30;99.90;;;;;;5013169;28;20222;-90
2022/11/11 02:47:14;;;;;;;4.60;2.00;;;8.20;99.90;;;;;;5012843;28;20729;-90
2022/11/11 02:49:41;;;;;;;2.77;1.90;;;8.00;99.90;;;;;;5011508;28;20196;-90
2022/11/11 02:52:08;;;;;;;7.93;2.20;;;7.90;99.90;;;;;;5013059;28;20236;-89
2022/11/11 02:54:35;;;;;;;5.07;1.83;;;8.10;99.90;;;;;;5012490;28;20196;-90
2022/11/11 02:57:08;;;;;;;5.93;2.10;;;8.00;99.90;;;;;;5012853;28;20211;-89
2022/11/11 02:59:37;;;;;;;5.57;1.90;;;8.00;99.90;;;;;;5012288;28;20200;-90
2022/11/11 03:02:04;;;;;;;3.33;2.00;;;7.90;99.90;;;;;;5012534;28;20220;-90
2022/11/11 03:04:31;;;;;;;2.80;1.97;;;7.60;99.90;;;;;;5013199;28;20204;-90
2022/11/11 03:06:58;;;;;;;6.33;1.90;;;7.70;99.90;;;;;;5012327;28;20230;-90
2022/11/11 03:09:24;;;;;;;3.63;2.13;;;7.80;99.90;;;;;;5012930;28;20200;-90
2022/11/11 03:11:51;;;;;;;3.80;1.90;;;7.80;99.90;;;;;;5009696;28;20200;-90
2022/11/11 03:14:18;;;;;;;3.83;1.83;;;7.60;99.90;;;;;;5014726;28;20287;-90
2022/11/11 03:19:31;;;;;;;2.57;2.10;;;7.60;99.90;;;;;;5014215;28;20695;-90
2022/11/11 03:21:58;;;;;;;5.00;2.17;;;7.60;99.90;;;;;;5014224;28;20196;-91
2022/11/11 03:25:36;;;;;;;6.47;2.13;;;7.70;99.90;;;;;;5016501;28;20205;-89
2022/11/11 03:27:13;;;;;;;5.13;2.33;;;8.00;99.90;;;;;;5011047;28;20204;-90
2022/11/11 03:29:40;;;;;;;4.10;2.00;;;8.30;99.90;;;;;;5012181;28;20208;-90
2022/11/11 03:32:09;;;;;;;6.10;2.00;;;8.10;99.90;;;;;;5011474;28;20224;-90
2022/11/11 03:34:36;;;;;;;3.07;1.80;;;8.10;99.90;;;;;;5011237;28;20235;-89
2022/11/11 03:39:47;;;;;;;5.87;1.90;;;8.20;99.90;;;;;;5012612;28;20199;-90
2022/11/11 03:42:14;;;;;;;6.80;2.23;;;8.30;99.90;;;;;;5012247;28;20242;-90
2022/11/11 03:44:40;;;;;;;3.87;2.03;;;8.40;99.90;;;;;;5011815;28;20207;-91
2022/11/11 03:47:08;;;;;;;6.00;2.50;;;8.60;99.90;;;;;;5010282;28;20231;-90
2022/11/11 03:49:35;;;;;;;3.17;1.83;;;8.50;99.90;;;;;;5011559;28;20205;-90
2022/11/11 03:52:02;;;;;;;4.90;1.80;;;8.70;99.90;;;;;;5036455;28;20264;-91
2022/11/11 03:54:29;;;;;;;4.17;1.93;;;8.50;99.90;;;;;;5037498;28;20235;-91
2022/11/11 03:57:29;;;;;;;2.67;1.80;;;8.60;99.90;;;;;;5019141;28;20208;-90
2022/11/11 03:59:44;;;;;;;3.77;1.90;;;8.80;99.90;;;;;;4998970;28;20208;-89
2022/11/11 04:10:28;;;;;;;2.47;2.00;;;8.80;99.90;;;;;;5012676;28;20204;-89
2022/11/11 04:23:52;;;;;;;3.00;1.80;;;8.80;99.90;;;;;;5011842;28;20263;-90
2022/11/11 04:26:18;;;;;;;5.03;1.70;;;8.70;99.90;;;;;;5012148;28;20231;-91
2022/11/11 04:31:29;;;;;;;2.57;2.00;;;9.00;99.90;;;;;;5011233;28;20203;-91
2022/11/11 04:33:56;;;;;;;1.70;1.50;;;8.90;99.90;;;;;;5012386;28;20220;-91
2022/11/11 04:36:23;;;;;;;8.53;3.40;;;8.90;99.90;;;;;;5012452;28;20204;-91
2022/11/11 04:41:34;;;;;;;3.83;2.30;;;9.00;99.90;;;;;;5012443;28;20207;-91
2022/11/11 04:46:45;;;;;;;3.60;2.00;;;8.80;99.90;;;;;;5013796;28;20281;-91
2022/11/11 04:49:14;;;;;;;1.70;1.60;;;9.00;99.90;;;;;;5016290;28;20283;-91
2022/11/11 04:54:24;;;;;;;4.13;2.33;;;9.00;99.90;;;;;;5016066;28;20202;-91
2022/11/11 04:56:50;;;;;;;4.27;2.00;;;9.00;99.90;;;;;;5016915;28;20205;-91
2022/11/11 04:59:18;;;;;;;4.50;2.00;;;9.00;99.90;;;;;;5016240;28;20223;-91
2022/11/11 05:04:32;;;;;;;2.03;1.60;;;9.00;99.90;;;;;;5017421;28;20255;-90
2022/11/11 05:09:43;;;;;;;3.37;1.90;;;9.00;99.90;;;;;;5016792;28;20644;-91
2022/11/11 05:12:10;;;;;;;6.67;2.13;;;8.90;99.90;;;;;;5017311;28;20693;-91
2022/11/11 05:22:54;;;;;;;7.13;2.67;;;8.90;99.90;;;;;;5015557;28;20223;-91
2022/11/11 05:25:27;;;;;;;5.23;2.53;;;8.70;99.90;;;;;;5014517;28;20207;-90
2022/11/11 05:27:55;;;;;;;2.53;1.87;;;8.50;99.90;;;;;;5011619;28;20227;-91
2022/11/11 05:30:23;;;;;;;3.47;2.33;;;8.50;99.90;;;;;;5013280;28;20212;-91
2022/11/11 05:32:50;;;;;;;5.47;1.90;;;8.30;99.90;;;;;;5013795;28;20229;-91
2022/11/11 05:35:18;;;;;;;3.80;2.13;;;8.30;99.90;;;;;;5011740;28;20587;-91
2022/11/11 05:38:19;;;;;;;5.90;2.10;;;8.40;99.90;;;;;;5013442;28;20584;-91
2022/11/11 05:40:34;;;;;;;4.30;1.80;;;8.30;99.90;;;;;;5009578;28;20500;-90
2022/11/11 05:43:01;;;;;;;6.33;2.13;;;8.50;99.90;;;;;;5009734;28;20231;-91
2022/11/11 05:45:28;;;;;;;3.67;2.30;;;8.40;99.90;;;;;;5007050;28;20205;-90
2022/11/11 05:47:54;;;;;;;3.57;1.90;;;8.30;99.90;;;;;;5011251;28;20664;-90
2022/11/11 05:50:23;;;;;;;5.70;2.13;;;8.20;99.90;;;;;;5009543;28;20260;-91
2022/11/11 05:52:50;;;;;;;5.80;2.33;;;8.10;99.90;;;;;;5009408;28;20225;-91
2022/11/11 05:55:17;;;;;;;2.53;1.90;;;7.80;99.90;;;;;;5011675;28;20201;-90
2022/11/11 05:57:44;;;;;;;2.27;1.93;;;7.70;99.90;;;;;;5011301;28;20619;-91
2022/11/11 06:00:11;;;;;;;6.07;2.07;;;7.90;99.90;;;;;;5012811;28;20215;-91
2022/11/11 06:02:39;;;;;;;5.10;1.80;;;7.80;99.90;;;;;;5013543;28;20224;-90
2022/11/11 06:05:07;;;;;;;3.23;2.30;;;7.80;99.90;;;;;;5011633;28;20292;-90
2022/11/11 06:07:38;;;;;;;5.07;2.33;;;7.80;99.90;;;;;;5011734;28;20315;-90
2022/11/11 06:15:37;;;;;;;7.03;2.80;;;7.80;99.90;;;;;;5007294;28;20346;-92
2022/11/11 06:18:06;;;;;;;7.00;2.50;;;8.00;99.90;;;;;;5007267;28;20215;-91
2022/11/11 06:20:34;;;;;;;6.57;2.57;;;7.90;99.90;;;;;;5013154;28;20211;-91
2022/11/11 06:23:03;;;;;;;3.40;2.13;;;7.90;99.90;;;;;;5009131;28;20224;-91
2022/11/11 06:28:17;;;;;;;6.60;2.50;;;8.00;99.90;;;;;;5011488;28;20238;-88
2022/11/11 06:30:44;;;;;;;6.10;2.40;;;8.10;99.90;;;;;;5013952;28;20291;-88
2022/11/11 06:33:12;;;;;;;3.67;2.13;;;8.30;99.90;;;;;;5012613;28;20229;-89
2022/11/11 06:35:43;;;;;;;3.43;2.07;;;8.10;99.90;;;;;;5005352;28;20223;-88
2022/11/11 06:38:11;;;;;;;4.37;2.13;;;8.40;99.90;;;;;;5004274;28;20207;-88
2022/11/11 06:40:38;;;;;;;5.33;2.40;;;8.30;99.90;;;;;;5003156;28;20208;-90
2022/11/11 06:43:04;;;;;;;5.43;2.20;;;8.30;99.90;;;;;;5009965;28;20233;-88
2022/11/11 06:45:32;;;;;;;3.87;2.40;;;8.30;99.90;;;;;;5012622;28;20204;-89
2022/11/11 06:47:59;;;;;;;4.33;2.43;;;8.40;99.90;;;;;;5023418;28;20262;-92
2022/11/11 06:50:27;;;;;;;3.97;2.10;;;8.50;99.90;;;;;;5035942;28;20204;-92
2022/11/11 06:52:53;;;;;;;4.20;2.40;;;8.40;99.90;;;;;;5019613;28;20255;-89
2022/11/11 06:55:23;;;;;;;7.10;2.43;;;8.40;99.90;;;;;;5007509;28;20231;-90
2022/11/11 06:57:49;;;;;;;5.37;2.40;;;8.40;99.90;;;;;;5009360;28;20212;-89
2022/11/11 07:00:17;;;;;;;5.67;2.60;;;8.60;99.90;;;;;;5003645;28;20213;-89
2022/11/11 07:02:44;;;;;;;6.03;2.77;;;8.60;99.90;;;;;;5010398;28;20224;-89
2022/11/11 07:05:11;;;;;;;3.77;2.30;;;8.50;99.90;;;;;;5011432;28;20224;-89
2022/11/11 07:07:38;;;;;;;4.13;2.53;;;8.50;99.90;;;;;;5011363;28;20238;-89
2022/11/11 07:10:06;;;;;;;4.60;3.23;;;8.70;99.90;;;;;;5006350;28;20212;-89
2022/11/11 07:12:34;;;;;;;2.83;2.30;;;8.80;99.90;;;;;;5009799;28;20216;-89
2022/11/11 07:15:01;;;;;;;8.63;2.80;;;8.70;99.90;;;;;;5006801;28;20197;-89
2022/11/11 07:17:27;;;;;;;5.03;2.60;;;8.60;99.90;;;;;;5005198;28;20208;-90
2022/11/11 07:19:54;;;;;;;5.77;2.67;;;8.70;99.90;;;;;;5006450;28;20211;-89
2022/11/11 07:22:21;;;;;;;4.50;2.20;;;8.70;99.90;;;;;;5004130;28;20229;-89
2022/11/11 07:24:48;;;;;;;3.47;2.17;;;8.70;99.90;;;;;;5009731;28;20669;-89
2022/11/11 07:27:15;;;;;;;4.67;2.47;;;8.60;99.90;;;;;;5012429;28;20276;-89
2022/11/11 07:29:43;;;;;;;6.47;2.90;;;8.50;99.90;;;;;;5009430;28;20215;-92
2022/11/11 07:32:10;;;;;;;3.00;2.07;;;8.70;99.90;;;;;;5010011;28;20235;-89
2022/11/11 07:34:37;;;;;;;4.40;2.40;;;8.80;99.90;;;;;;5012710;28;20204;-89
2022/11/11 07:37:03;;;;;;;2.17;1.87;;;9.00;99.90;;;;;;5010894;28;20201;-88
2022/11/11 07:39:30;;;;;;;2.90;1.90;;;9.20;99.90;;;;;;5011643;28;20215;-88
2022/11/11 07:41:57;;;;;;;8.30;2.97;;;9.30;99.90;;;;;;5012037;28;20215;-88
2022/11/11 07:44:24;;;;;;;3.50;2.00;;;9.30;99.90;;;;;;5005401;28;20593;-89
2022/11/11 07:46:52;;;;;;;3.83;2.00;;;9.30;58.90;;;;;;5011473;28;20231;-90
2022/11/11 07:49:19;;;;;;;3.73;2.20;;;9.30;44.60;;;;;;5011254;28;20695;-88
2022/11/11 07:51:46;;;;;;;3.50;2.63;;;9.20;11.30;;;;;;5011353;28;20215;-88
2022/11/11 07:54:13;;;;;;;5.93;2.43;;;9.40;4.50;;;;;;5011537;28;20211;-88
2022/11/11 07:56:39;;;;;;;3.47;1.83;;;9.40;48.50;;;;;;5011558;28;20208;-88
2022/11/11 07:59:06;;;;;;;3.90;1.90;;;9.40;58.80;;;;;;5009064;28;20208;-89
2022/11/11 08:01:33;;;;;;;3.43;2.00;;;9.50;38.00;;;;;;5007927;28;20208;-88
2022/11/11 08:04:01;;;;;;;4.17;2.10;;;9.50;78.40;;;;;;5011340;28;20224;-88
2022/11/11 08:06:28;;;;;;;5.00;2.63;;;9.50;86.30;;;;;;5007805;28;20239;-86
2022/11/11 08:08:55;;;;;;;6.13;2.03;;;9.60;1.00;;;;;;5010467;28;20613;-88
2022/11/11 08:14:02;;;;;;;7.37;2.43;;;9.80;1.00;;;;;;5007944;28;20252;-87
2022/11/11 08:16:29;;;;;;;5.67;2.37;;;9.80;1.00;;;;;;5009454;28;20196;-87
2022/11/11 08:18:58;;;;;;;4.67;2.10;;;9.90;1.00;;;;;;5009907;28;20204;-87
2022/11/11 08:21:27;;;;;;;4.27;2.10;;;9.90;1.00;;;;;;5014917;28;20200;-86
2022/11/11 08:23:54;;;;;;;12.30;5.77;;;10.00;1.00;;;;;;5015973;28;20227;-86
2022/11/11 08:26:22;;;;;;;11.57;3.53;;;10.00;1.00;;;;;;5016734;28;20208;-88
2022/11/11 08:28:51;;;;;;;5.37;3.00;;;10.10;1.00;;;;;;5017011;28;20219;-89
2022/11/11 08:31:18;;;;;;;6.13;2.50;;;10.20;1.00;;;;;;5016618;28;20209;-88
2022/11/11 08:33:45;;;;;;;4.80;2.40;;;10.20;1.00;;;;;;5001362;28;20225;-88
2022/11/11 08:36:12;;;;;;;2.87;2.20;;;10.40;1.00;;;;;;5000245;28;20208;-88
2022/11/11 08:38:40;;;;;;;4.83;2.10;;;10.50;1.00;;;;;;5016658;28;20204;-87
2022/11/11 08:41:07;;;;;;;4.10;2.20;;;10.50;1.00;;;;;;5015974;28;20223;-87
2022/11/11 08:43:34;;;;;;;3.07;2.10;;;10.60;1.00;;;;;;5017122;28;20239;-87
2022/11/11 08:46:03;;;;;;;3.30;2.47;;;10.70;1.00;;;;;;5016590;28;20209;-87
2022/11/11 08:48:30;;;;;;;4.40;2.53;;;10.80;1.00;;;;;;5007487;28;20611;-91
2022/11/11 08:50:57;;;;;;;6.00;2.63;;;10.90;1.00;;;;;;5015125;28;20208;-88
2022/11/11 08:53:24;;;;;;;4.90;2.67;;;10.90;99.90;;;;;;5013661;28;20224;-88
2022/11/11 08:55:52;;;;;;;4.43;2.23;;;11.00;99.90;;;;;;4997619;28;20213;-88
2022/11/11 08:58:19;;;;;;;6.63;2.63;;;11.20;99.90;;;;;;5015896;28;20295;-88
2022/11/11 09:00:46;;;;;;;4.33;2.37;;;11.30;1.00;;;;;;5016618;28;20208;-89
2022/11/11 09:03:15;;;;;;;2.40;1.83;;;11.30;1.00;;;;;;5002452;28;20925;-88
2022/11/11 09:05:43;;;;;;;5.03;2.20;;;11.40;1.00;;;;;;4995119;28;20765;-88
2022/11/11 09:08:09;;;;;;;3.17;1.87;;;11.30;1.00;;;;;;5011988;28;20236;-88
2022/11/11 09:10:37;;;;;;;3.57;2.20;;;11.40;1.00;;;;;;5015054;28;20216;-88
2022/11/11 09:13:06;;;;;;;4.57;2.20;;;11.50;99.90;;;;;;5014087;28;20228;-88
2022/11/11 09:15:33;;;;;;;3.77;2.23;;;11.40;1.00;;;;;;5014705;28;20654;-88
2022/11/11 09:18:00;;;;;;;6.43;2.10;;;11.50;1.00;;;;;;5014682;28;20673;-88
2022/11/11 09:20:27;;;;;;;2.97;2.10;;;11.50;16.00;;;;;;5013959;28;20208;-88
2022/11/11 09:22:54;;;;;;;4.13;2.23;;;11.60;1.00;;;;;;5013362;28;20228;-86
2022/11/11 09:25:22;;;;;;;3.30;2.27;;;11.80;99.90;;;;;;5006901;28;20213;-88
2022/11/11 09:27:55;;;;;;;4.63;2.10;;;11.80;99.90;;;;;;5015863;28;20231;-88
2022/11/11 09:30:24;;;;;;;4.77;2.07;;;11.90;1.00;;;;;;5016946;28;20240;-87
2022/11/11 09:32:51;;;;;;;4.03;2.40;;;11.90;1.00;;;;;;5016562;28;20228;-88
2022/11/11 09:35:18;;;;;;;3.50;2.20;;;12.10;99.90;;;;;;5016802;28;20212;-88
2022/11/11 09:37:54;;;;;;;3.83;2.20;;;12.10;99.90;;;;;;5013777;28;20205;-88
2022/11/11 09:40:23;;;;;;;3.67;2.10;;;12.20;1.00;;;;;;5036517;28;20211;-91
2022/11/11 09:42:58;;;;;;;2.57;2.00;;;12.10;1.00;;;;;;5037217;28;20236;-89
2022/11/11 09:45:33;;;;;;;4.17;2.20;;;12.30;1.00;;;;;;5025753;28;20231;-88
2022/11/11 09:48:16;;;;;;;4.70;1.73;;;12.40;1.00;;;;;;5013211;28;20238;-89
2022/11/11 09:50:53;;;;;;;2.67;2.20;;;12.50;99.90;;;;;;4994540;28;20207;-87
2022/11/11 09:53:26;;;;;;;6.47;2.43;;;12.60;99.90;;;;;;5004032;28;20599;-88
2022/11/11 09:55:58;;;;;;;2.30;1.90;;;12.80;1.00;;;;;;5012411;28;20212;-87
2022/11/11 09:58:30;;;;;;;4.47;3.00;;;13.20;1.00;;;;;;4994483;28;20205;-89
2022/11/11 10:01:05;;;;;;;6.27;2.87;;;13.30;1.00;;;;;;4994919;28;20209;-90
2022/11/11 10:03:39;;;;;;;6.30;2.97;;;13.40;1.00;;;;;;5007617;28;20244;-88
2022/11/11 10:06:13;;;;;;;2.83;2.50;;;13.60;99.90;;;;;;5014177;28;20680;-89
2022/11/11 10:08:44;;;;;;;6.60;2.57;;;13.80;1.00;;;;;;5016425;28;20690;-89
2022/11/11 10:11:16;;;;;;;7.10;2.80;;;13.80;1.00;;;;;;5016636;28;20219;-88
2022/11/11 10:13:43;;;;;;;4.37;2.20;;;14.00;1.00;;;;;;5015177;28;20232;-88
2022/11/11 10:16:22;;;;;;;6.23;2.50;;;14.00;99.90;;;;;;5013677;28;20204;-89
2022/11/11 10:19:18;;;;;;;5.40;2.47;;;14.00;1.00;;;;;;5015044;28;20208;-89
2022/11/11 10:21:50;;;;;;;3.47;1.77;;;14.10;1.00;;;;;;5013863;28;20227;-88
2022/11/11 10:24:22;;;;;;;3.20;2.00;;;14.20;1.00;;;;;;5016610;28;20215;-88
2022/11/11 10:26:49;;;;;;;8.00;2.60;;;14.30;1.00;;;;;;5015099;28;20219;-90
2022/11/11 10:29:19;;;;;;;5.13;2.73;;;14.20;1.00;;;;;;5014248;28;20227;-90
2022/11/11 10:31:55;;;;;;;2.13;1.43;;;14.30;1.00;;;;;;5016906;28;20216;-90
2022/11/11 10:34:22;;;;;;;3.70;1.77;;;14.70;99.90;;;;;;5015005;28;20230;-89
2022/11/11 10:36:53;;;;;;;2.80;1.30;;;14.80;99.90;;;;;;5016977;28;20211;-91
2022/11/11 10:39:25;;;;;;;1.67;1.40;;;14.80;99.90;;;;;;5000288;28;20219;-90
2022/11/11 10:41:52;;;;;;;3.20;1.40;;;14.70;99.90;;;;;;5014168;28;20212;-89
2022/11/11 10:44:21;;;;;;;3.83;1.60;;;14.70;99.90;;;;;;5015530;28;20218;-89
2022/11/11 10:46:58;;;;;;;1.80;1.27;;;14.70;99.90;;;;;;5015958;28;20196;-89
2022/11/11 10:49:29;;;;;;;3.17;1.20;;;14.90;83.10;;;;;;4997355;28;20208;-90
2022/11/11 10:52:04;;;;;;;1.33;1.07;;;15.00;99.90;;;;;;5007229;28;20215;-89
2022/11/11 10:54:37;;;;;;;4.10;1.47;;;15.00;73.50;;;;;;4999667;28;20239;-89
2022/11/11 10:57:14;;;;;;;1.40;1.30;;;15.00;1.00;;;;;;5018603;28;20214;-90
2022/11/11 10:59:47;;;;;;;1.83;1.33;;;15.00;1.00;;;;;;5018572;28;20658;-90
2022/11/11 11:02:21;;;;;;;1.67;1.10;;;15.00;1.00;;;;;;5014347;28;20234;-90
2022/11/11 11:04:52;;;;;;;2.80;1.20;;;15.30;1.00;;;;;;5015004;28;20216;-90
2022/11/11 11:07:26;;;;;;;1.57;1.10;;;15.20;1.00;;;;;;5013559;28;20312;-89
2022/11/11 11:09:57;;;;;;;2.28;1.42;;;15.30;1.00;;;;;;5013421;28;20215;-89
2022/11/11 11:12:30;;;;;;;3.60;1.30;;;15.40;1.00;;;;;;5013232;28;20230;-90
2022/11/11 11:15:02;;;;;;;2.17;1.20;;;15.30;1.00;;;;;;5013658;28;20684;-89
2022/11/11 11:17:51;;;;;;;2.70;1.30;;;15.50;1.00;;;;;;5012063;28;20239;-88
2022/11/11 11:20:20;;;;;;;1.80;1.10;;;15.70;1.00;;;;;;5016968;28;20220;-89
2022/11/11 11:22:50;;;;;;;1.30;0.80;;;15.60;1.00;;;;;;4999457;28;20731;-89
2022/11/11 11:25:18;;;;;;;2.45;0.82;;;15.70;1.00;;;;;;5001049;28;20593;-88
2022/11/11 11:27:45;;;;;;;1.88;1.00;;;15.50;1.00;;;;;;5007777;28;20228;-89
2022/11/11 11:30:15;;;;;;;1.67;0.98;;;15.40;1.00;;;;;;5013391;28;20212;-88
2022/11/11 11:32:56;;;;;;;1.25;1.13;;;15.40;1.00;;;;;;5010018;28;20731;-87
2022/11/11 11:35:37;;;;;;;4.32;1.88;;;15.40;1.00;;;;;;5010692;28;20215;-87
2022/11/11 11:38:05;;;;;;;1.52;0.98;;;15.60;1.00;;;;;;5011456;28;20656;-87
2022/11/11 11:40:49;;;;;;;1.85;1.08;;;15.80;1.00;;;;;;5010661;28;20212;-87
2022/11/11 11:43:32;;;;;;;2.42;1.38;;;15.90;1.00;;;;;;5010013;28;20324;-88
2022/11/11 11:46:01;;;;;;;1.60;0.82;;;16.00;1.00;;;;;;5011047;28;20207;-87
2022/11/11 11:48:47;;;;;;;1.77;0.70;;;15.90;1.00;;;;;;5002214;28;20220;-91
2022/11/11 11:51:22;;;;;;;1.15;1.00;;;16.40;99.90;;;;;;5010617;28;20212;-88
2022/11/11 11:54:03;;;;;;;1.38;0.95;;;17.40;99.90;;;;;;5002361;28;20230;-88
2022/11/11 11:56:38;;;;;;;1.63;1.10;;;18.40;99.90;;;;;;5012247;28;20216;-87
2022/11/11 11:59:14;;;;;;;1.77;0.82;;;18.40;99.90;;;;;;5014767;28;20291;-86
2022/11/11 12:01:53;;;;;;;2.15;0.98;;;18.00;99.90;;;;;;5015018;28;20626;-86
2022/11/11 12:05:09;;;;;;;3.53;0.98;;;17.60;99.90;;;;;;5014787;28;20709;-87
2022/11/11 12:07:48;;;;;;;2.33;1.02;;;17.60;99.90;;;;;;5014506;28;20314;-89
2022/11/11 12:10:28;;;;;;;3.30;0.95;;;18.40;99.90;;;;;;5013918;28;20222;-88
2022/11/11 12:13:02;;;;;;;1.65;1.00;;;17.60;99.90;;;;;;5012981;28;20227;-87
2022/11/11 12:15:36;;;;;;;2.50;1.20;;;17.30;99.90;;;;;;5013976;28;20712;-89
2022/11/11 12:18:21;;;;;;;1.27;1.00;;;17.50;99.90;;;;;;5014288;28;20290;-88
2022/11/11 12:20:55;;;;;;;2.40;0.98;;;17.30;99.90;;;;;;5011753;28;20208;-89
2022/11/11 12:23:43;;;;;;;0.88;0.75;;;17.10;99.90;;;;;;5013762;28;20228;-88
2022/11/11 12:26:16;;;;;;;2.55;1.30;;;17.50;99.90;;;;;;5014845;28;20208;-89
2022/11/11 12:28:57;;;;;;;1.00;1.00;;;17.20;99.90;;;;;;5003036;28;20238;-89
2022/11/11 12:31:31;;;;;;;2.00;1.00;;;17.40;99.90;;;;;;5004659;28;20271;-89
2022/11/11 12:34:13;;;;;;;2.20;0.98;;;17.20;99.90;;;;;;5012945;28;20234;-90
2022/11/11 12:36:53;;;;;;;2.30;1.10;;;16.80;99.90;;;;;;5015004;28;20208;-89
2022/11/11 12:39:47;;;;;;;1.08;0.85;;;16.30;99.90;;;;;;5015087;28;20211;-88
2022/11/11 12:42:24;;;;;;;0.93;0.80;;;16.30;99.90;;;;;;5017679;28;20242;-89
2022/11/11 12:45:00;;;;;;;0.88;0.88;;;16.30;99.90;;;;;;5035979;28;20198;-87
2022/11/11 12:47:36;;;;;;;2.35;1.20;;;16.50;99.90;;;;;;5026036;28;20665;-88
2022/11/11 12:50:15;;;;;;;0.95;0.88;;;17.00;99.90;;;;;;5032295;28;20218;-90
2022/11/11 12:53:00;;;;;;;2.08;1.30;;;16.80;99.90;;;;;;5038325;28;20214;-89
2022/11/11 12:55:33;;;;;;;1.35;1.13;;;17.00;99.90;;;;;;5021293;28;20212;-86
2022/11/11 12:58:15;;;;;;;1.80;1.20;;;17.20;99.90;;;;;;5007785;28;20203;-87
2022/11/11 13:01:11;;;;;;;1.10;1.00;;;17.10;99.90;;;;;;4995756;28;20219;-89
2022/11/11 13:03:50;;;;;;;0.80;0.80;;;17.30;99.90;;;;;;5004988;28;20225;-88
2022/11/11 13:06:31;;;;;;;2.65;1.05;;;17.50;99.90;;;;;;4998121;28;20292;-88
2022/11/11 13:09:37;;;;;;;2.50;1.10;;;17.50;99.90;;;;;;5016296;28;20613;-88
2022/11/11 13:12:08;;;;;;;1.25;1.15;;;17.20;99.90;;;;;;5010546;28;20330;-88
2022/11/11 13:14:58;;;;;;;3.33;1.80;;;17.20;99.90;;;;;;5017071;28;20601;-88
2022/11/11 13:17:25;;;;;;;3.03;1.67;;;17.20;99.90;;;;;;5012877;28;20585;-88
2022/11/11 13:19:54;;;;;;;3.45;1.10;;;16.60;99.90;;;;;;5017120;28;20220;-88
2022/11/11 13:22:23;;;;;;;1.98;0.88;;;16.30;99.90;;;;;;5017403;28;20234;-89
2022/11/11 13:24:53;;;;;;;2.10;1.15;;;16.00;99.90;;;;;;5017007;28;20596;-88
2022/11/11 13:27:27;;;;;;;1.45;0.88;;;15.80;99.90;;;;;;5016711;28;20629;-88
2022/11/11 13:30:22;;;;;;;0.88;0.88;;;15.80;99.90;;;;;;5016816;28;20249;-89
2022/11/11 13:32:54;;;;;;;1.27;1.02;;;15.70;1.00;;;;;;5016060;28;20776;-88
2022/11/11 13:35:28;;;;;;;1.73;1.10;;;15.70;1.00;;;;;;5018786;28;20365;-88
2022/11/11 13:37:55;;;;;;;1.45;0.93;;;15.60;1.00;;;;;;5019403;28;20220;-89
2022/11/11 13:40:37;;;;;;;1.58;1.00;;;15.60;1.00;;;;;;5014738;28;20204;-87
2022/11/11 13:43:05;;;;;;;1.90;1.10;;;15.50;1.00;;;;;;4997910;28;20240;-90
2022/11/11 13:45:36;;;;;;;1.73;1.17;;;15.50;1.00;;;;;;4996277;28;20211;-88
2022/11/11 13:48:04;;;;;;;1.40;1.17;;;15.40;1.00;;;;;;4997454;28;20271;-88
2022/11/11 13:50:33;;;;;;;3.63;1.73;;;15.30;1.00;;;;;;4995887;28;20208;-88
2022/11/11 13:53:02;;;;;;;2.92;1.25;;;15.20;1.00;;;;;;4995234;28;20228;-88
2022/11/11 13:55:35;;;;;;;1.58;1.38;;;15.30;1.00;;;;;;4995592;28;20211;-89
2022/11/11 13:58:04;;;;;;;1.70;1.20;;;15.20;1.00;;;;;;4994986;28;20213;-89
2022/11/11 14:00:35;;;;;;;2.85;1.23;;;15.10;1.00;;;;;;4997047;28;20682;-88
2022/11/11 14:03:30;;;;;;;3.63;2.13;;;15.00;1.00;;;;;;4996395;28;20233;-89
2022/11/11 14:06:36;;;;;;;3.05;2.38;;;15.00;1.00;;;;;;4960704;28;20209;-90
2022/11/11 14:09:04;;;;;;;3.15;1.40;;;14.90;1.00;;;;;;4995316;28;20639;-89
2022/11/11 14:11:34;;;;;;;2.30;0.88;;;14.80;1.00;;;;;;4995201;28;20596;-89
2022/11/11 14:14:35;;;;;;;1.30;1.20;;;14.70;1.00;;;;;;4995520;28;20235;-92
2022/11/11 14:17:05;;;;;;;1.08;1.00;;;14.70;2.80;;;;;;4995411;28;20233;-89
2022/11/11 14:19:32;;;;;;;1.37;1.27;;;14.60;1.00;;;;;;5014654;28;20509;-89
2022/11/11 14:22:00;;;;;;;1.55;1.33;;;14.50;99.90;;;;;;5014532;28;20212;-90
2022/11/11 14:24:35;;;;;;;1.13;1.00;;;14.40;99.90;;;;;;5014677;28;20218;-89
2022/11/11 14:27:22;;;;;;;2.93;1.70;;;14.40;99.90;;;;;;5132394;27;20991;-82
2022/11/11 14:29:51;;;;;;;1.70;1.50;;;14.30;99.90;;;;;;5111483;28;20255;-83
2022/11/11 14:32:40;;;;;;;2.60;1.15;;;14.20;1.00;;;;;;5110766;28;20680;-83
2022/11/11 14:35:19;;;;;;;2.65;1.58;;;14.20;1.00;;;;;;5108398;28;20203;-83
2022/11/11 14:38:05;;;;;;;3.40;2.20;;;13.90;36.50;;;;;;5111529;28;20317;-83
2022/11/11 14:40:33;;;;;;;3.57;2.07;;;13.80;99.90;;;;;;5107689;28;20574;-84